sensor_id;sensor_type;location;lat;lon;timestamp;pressure;altitude;pressure_sealevel;temperature;humidity
11099;BME280;12223;42.650;23.364;2023-04-29T00:01:11;94789.38;;;7.26;68.42
11099;BME280;12223;42.650;23.364;2023-04-29T00:03:38;94783.09;;;7.27;67.96
11099;BME280;12223;42.650;23.364;2023-04-29T00:06:06;94785.34;;;7.31;67.44
11099;BME280;12223;42.650;23.364;2023-04-29T00:08:33;94788.16;;;7.29;67.67
11099;BME280;12223;42.650;23.364;2023-04-29T00:11:00;94791.38;;;7.24;67.71
11099;BME280;12223;42.650;23.364;2023-04-29T00:13:27;94762.06;;;7.08;68.01
11099;BME280;12223;42.650;23.364;2023-04-29T00:15:54;94749.31;;;7.05;67.56
11099;BME280;12223;42.650;23.364;2023-04-29T00:18:21;94790.00;;;7.35;68.37
11099;BME280;12223;42.650;23.364;2023-04-29T00:20:48;94794.03;;;7.31;69.80
11099;BME280;12223;42.650;23.364;2023-04-29T00:23:17;94797.03;;;7.28;70.66
11099;BME280;12223;42.650;23.364;2023-04-29T00:25:44;94799.41;;;7.10;71.45
11099;BME280;12223;42.650;23.364;2023-04-29T00:28:11;94794.34;;;7.02;74.24
11099;BME280;12223;42.650;23.364;2023-04-29T00:30:37;94799.94;;;6.85;77.27
11099;BME280;12223;42.650;23.364;2023-04-29T00:33:04;94806.38;;;6.76;80.20
11099;BME280;12223;42.650;23.364;2023-04-29T00:35:31;94802.91;;;6.69;81.67
11099;BME280;12223;42.650;23.364;2023-04-29T00:37:59;94800.47;;;6.68;82.88
11099;BME280;12223;42.650;23.364;2023-04-29T00:40:29;94802.47;;;6.66;83.91
11099;BME280;12223;42.650;23.364;2023-04-29T00:42:55;94805.69;;;6.61;82.97
11099;BME280;12223;42.650;23.364;2023-04-29T00:45:22;94804.47;;;6.57;83.07
11099;BME280;12223;42.650;23.364;2023-04-29T00:47:49;94799.53;;;6.47;82.16
11099;BME280;12223;42.650;23.364;2023-04-29T00:50:16;94792.84;;;6.45;82.77
11099;BME280;12223;42.650;23.364;2023-04-29T00:52:44;94800.03;;;6.30;84.10
11099;BME280;12223;42.650;23.364;2023-04-29T00:55:11;94790.94;;;6.26;85.09
11099;BME280;12223;42.650;23.364;2023-04-29T00:57:39;94792.31;;;6.22;86.01
11099;BME280;12223;42.650;23.364;2023-04-29T01:00:08;94781.19;;;6.13;86.69
11099;BME280;12223;42.650;23.364;2023-04-29T01:02:35;94776.91;;;6.05;88.04
11099;BME280;12223;42.650;23.364;2023-04-29T01:05:03;94773.66;;;6.03;89.87
11099;BME280;12223;42.650;23.364;2023-04-29T01:07:35;94768.16;;;5.77;92.26
11099;BME280;12223;42.650;23.364;2023-04-29T01:10:09;94769.16;;;5.97;92.79
11099;BME280;12223;42.650;23.364;2023-04-29T01:12:44;94769.03;;;6.05;92.10
11099;BME280;12223;42.650;23.364;2023-04-29T01:15:24;94765.47;;;6.13;92.47
11099;BME280;12223;42.650;23.364;2023-04-29T01:17:55;94766.41;;;6.05;93.47
11099;BME280;12223;42.650;23.364;2023-04-29T01:20:25;94762.53;;;6.01;94.23
11099;BME280;12223;42.650;23.364;2023-04-29T01:22:52;94760.41;;;6.12;94.25
11099;BME280;12223;42.650;23.364;2023-04-29T01:25:21;94753.63;;;6.24;93.36
11099;BME280;12223;42.650;23.364;2023-04-29T01:27:56;94747.97;;;6.27;93.23
11099;BME280;12223;42.650;23.364;2023-04-29T01:30:38;94747.59;;;6.30;91.87
11099;BME280;12223;42.650;23.364;2023-04-29T01:33:14;94750.25;;;6.36;90.94
11099;BME280;12223;42.650;23.364;2023-04-29T01:35:57;94756.03;;;6.25;90.78
11099;BME280;12223;42.650;23.364;2023-04-29T01:38:31;94757.03;;;6.24;90.72
11099;BME280;12223;42.650;23.364;2023-04-29T01:41:09;94757.72;;;6.05;93.00
11099;BME280;12223;42.650;23.364;2023-04-29T01:43:37;94758.53;;;6.05;93.50
11099;BME280;12223;42.650;23.364;2023-04-29T01:46:05;94755.09;;;6.05;94.78
11099;BME280;12223;42.650;23.364;2023-04-29T01:48:35;94752.25;;;6.00;94.41
11099;BME280;12223;42.650;23.364;2023-04-29T01:51:02;94748.97;;;5.91;95.11
11099;BME280;12223;42.650;23.364;2023-04-29T01:53:30;94758.22;;;5.87;96.80
11099;BME280;12223;42.650;23.364;2023-04-29T01:55:57;94746.97;;;5.93;96.23
11099;BME280;12223;42.650;23.364;2023-04-29T01:58:27;94745.34;;;5.92;97.42
11099;BME280;12223;42.650;23.364;2023-04-29T02:00:54;94747.66;;;5.81;98.46
11099;BME280;12223;42.650;23.364;2023-04-29T02:03:21;94758.50;;;5.78;99.08
11099;BME280;12223;42.650;23.364;2023-04-29T02:05:48;94760.44;;;5.69;99.93
11099;BME280;12223;42.650;23.364;2023-04-29T02:08:15;94752.63;;;5.48;100.00
11099;BME280;12223;42.650;23.364;2023-04-29T02:10:51;94763.22;;;5.61;100.00
11099;BME280;12223;42.650;23.364;2023-04-29T02:13:18;94765.78;;;5.54;100.00
11099;BME280;12223;42.650;23.364;2023-04-29T02:15:46;94756.28;;;5.53;100.00
11099;BME280;12223;42.650;23.364;2023-04-29T02:18:13;94761.53;;;5.53;100.00
11099;BME280;12223;42.650;23.364;2023-04-29T02:20:40;94763.53;;;5.51;100.00
11099;BME280;12223;42.650;23.364;2023-04-29T02:23:06;94761.59;;;5.60;100.00
11099;BME280;12223;42.650;23.364;2023-04-29T02:25:33;94758.28;;;5.51;100.00
11099;BME280;12223;42.650;23.364;2023-04-29T02:28:00;94758.03;;;5.68;100.00
11099;BME280;12223;42.650;23.364;2023-04-29T02:30:27;94759.66;;;5.69;100.00
11099;BME280;12223;42.650;23.364;2023-04-29T02:32:56;94764.22;;;5.60;100.00
11099;BME280;12223;42.650;23.364;2023-04-29T02:35:22;94758.28;;;5.51;100.00
11099;BME280;12223;42.650;23.364;2023-04-29T02:37:49;94761.06;;;5.43;100.00
11099;BME280;12223;42.650;23.364;2023-04-29T02:40:16;94759.38;;;5.36;100.00
11099;BME280;12223;42.650;23.364;2023-04-29T02:42:43;94761.34;;;5.34;100.00
11099;BME280;12223;42.650;23.364;2023-04-29T02:45:10;94753.13;;;5.37;100.00
11099;BME280;12223;42.650;23.364;2023-04-29T02:47:37;94754.53;;;5.39;100.00
11099;BME280;12223;42.650;23.364;2023-04-29T02:50:06;94751.25;;;5.31;100.00
11099;BME280;12223;42.650;23.364;2023-04-29T02:52:33;94754.06;;;5.29;100.00
11099;BME280;12223;42.650;23.364;2023-04-29T02:55:00;94759.53;;;5.34;100.00
11099;BME280;12223;42.650;23.364;2023-04-29T02:57:27;94760.88;;;5.23;100.00
11099;BME280;12223;42.650;23.364;2023-04-29T02:59:56;94766.28;;;5.22;100.00
11099;BME280;12223;42.650;23.364;2023-04-29T03:02:23;94773.31;;;5.21;100.00
11099;BME280;12223;42.650;23.364;2023-04-29T03:04:50;94791.41;;;5.16;100.00
11099;BME280;12223;42.650;23.364;2023-04-29T03:07:19;94782.16;;;5.20;100.00
11099;BME280;12223;42.650;23.364;2023-04-29T03:09:45;94777.50;;;5.16;100.00
11099;BME280;12223;42.650;23.364;2023-04-29T03:12:12;94776.72;;;5.01;100.00
11099;BME280;12223;42.650;23.364;2023-04-29T03:14:41;94777.78;;;5.06;100.00
11099;BME280;12223;42.650;23.364;2023-04-29T03:17:08;94771.31;;;5.02;100.00
11099;BME280;12223;42.650;23.364;2023-04-29T03:19:35;94773.09;;;5.02;100.00
11099;BME280;12223;42.650;23.364;2023-04-29T03:22:01;94777.59;;;5.08;100.00
11099;BME280;12223;42.650;23.364;2023-04-29T03:24:30;94773.63;;;5.12;100.00
11099;BME280;12223;42.650;23.364;2023-04-29T03:26:56;94755.78;;;5.01;100.00
11099;BME280;12223;42.650;23.364;2023-04-29T03:29:24;94790.59;;;5.16;100.00
11099;BME280;12223;42.650;23.364;2023-04-29T03:31:52;94791.41;;;5.16;100.00
11099;BME280;12223;42.650;23.364;2023-04-29T03:34:18;94797.50;;;5.23;100.00
11099;BME280;12223;42.650;23.364;2023-04-29T03:36:45;94796.09;;;5.06;100.00
11099;BME280;12223;42.650;23.364;2023-04-29T03:39:12;94790.66;;;5.22;100.00
11099;BME280;12223;42.650;23.364;2023-04-29T03:41:40;94811.81;;;5.42;100.00
11099;BME280;12223;42.650;23.364;2023-04-29T03:44:07;94808.66;;;5.32;100.00
11099;BME280;12223;42.650;23.364;2023-04-29T03:46:34;94815.16;;;5.36;100.00
11099;BME280;12223;42.650;23.364;2023-04-29T03:49:00;94823.19;;;5.35;100.00
11099;BME280;12223;42.650;23.364;2023-04-29T03:51:28;94818.28;;;5.46;100.00
11099;BME280;12223;42.650;23.364;2023-04-29T03:53:55;94807.22;;;5.51;100.00
11099;BME280;12223;42.650;23.364;2023-04-29T03:56:22;94807.75;;;5.40;100.00
11099;BME280;12223;42.650;23.364;2023-04-29T03:58:51;94808.78;;;5.45;100.00
11099;BME280;12223;42.650;23.364;2023-04-29T04:01:18;94799.66;;;5.56;100.00
11099;BME280;12223;42.650;23.364;2023-04-29T04:03:45;94799.25;;;5.80;100.00
11099;BME280;12223;42.650;23.364;2023-04-29T04:06:12;94797.06;;;5.84;100.00
11099;BME280;12223;42.650;23.364;2023-04-29T04:08:39;94803.25;;;5.97;100.00
11099;BME280;12223;42.650;23.364;2023-04-29T04:11:06;94801.47;;;6.04;100.00
11099;BME280;12223;42.650;23.364;2023-04-29T04:13:34;94802.94;;;6.14;100.00
11099;BME280;12223;42.650;23.364;2023-04-29T04:16:02;94782.56;;;6.09;100.00
11099;BME280;12223;42.650;23.364;2023-04-29T04:18:29;94807.16;;;6.36;100.00
11099;BME280;12223;42.650;23.364;2023-04-29T04:20:56;94806.81;;;6.52;100.00
11099;BME280;12223;42.650;23.364;2023-04-29T04:23:22;94803.28;;;6.66;100.00
11099;BME280;12223;42.650;23.364;2023-04-29T04:25:49;94808.38;;;6.74;100.00
11099;BME280;12223;42.650;23.364;2023-04-29T04:28:17;94802.00;;;6.97;99.77
11099;BME280;12223;42.650;23.364;2023-04-29T04:30:45;94799.59;;;7.08;97.32
11099;BME280;12223;42.650;23.364;2023-04-29T04:33:13;94794.00;;;7.18;96.74
11099;BME280;12223;42.650;23.364;2023-04-29T04:35:41;94764.13;;;7.25;94.86
11099;BME280;12223;42.650;23.364;2023-04-29T04:38:08;94785.56;;;7.49;92.72
11099;BME280;12223;42.650;23.364;2023-04-29T04:40:35;94794.69;;;7.66;91.63
11099;BME280;12223;42.650;23.364;2023-04-29T04:43:02;94795.13;;;7.83;90.31
11099;BME280;12223;42.650;23.364;2023-04-29T04:45:29;94800.97;;;8.11;87.94
11099;BME280;12223;42.650;23.364;2023-04-29T04:47:55;94804.22;;;8.20;85.63
11099;BME280;12223;42.650;23.364;2023-04-29T04:50:26;94804.41;;;8.44;86.18
11099;BME280;12223;42.650;23.364;2023-04-29T04:52:53;94807.41;;;8.61;83.32
11099;BME280;12223;42.650;23.364;2023-04-29T04:55:20;94813.88;;;8.85;81.83
11099;BME280;12223;42.650;23.364;2023-04-29T04:57:47;94811.50;;;9.15;80.87
11099;BME280;12223;42.650;23.364;2023-04-29T05:00:14;94806.13;;;9.73;78.06
11099;BME280;12223;42.650;23.364;2023-04-29T05:02:41;94806.06;;;10.11;71.84
11099;BME280;12223;42.650;23.364;2023-04-29T05:05:08;94797.47;;;10.65;69.38
11099;BME280;12223;42.650;23.364;2023-04-29T05:07:36;94790.66;;;10.94;66.36
11099;BME280;12223;42.650;23.364;2023-04-29T05:10:05;94786.66;;;11.21;66.83
11099;BME280;12223;42.650;23.364;2023-04-29T05:12:32;94775.41;;;11.25;64.54
11099;BME280;12223;42.650;23.364;2023-04-29T05:14:59;94774.94;;;11.47;62.35
11099;BME280;12223;42.650;23.364;2023-04-29T05:17:26;94780.59;;;11.80;60.35
11099;BME280;12223;42.650;23.364;2023-04-29T05:19:53;94771.56;;;11.99;55.86
11099;BME280;12223;42.650;23.364;2023-04-29T05:22:20;94772.38;;;12.00;54.55
11099;BME280;12223;42.650;23.364;2023-04-29T05:24:48;94755.31;;;11.96;54.90
11099;BME280;12223;42.650;23.364;2023-04-29T05:27:17;94754.53;;;11.65;56.40
11099;BME280;12223;42.650;23.364;2023-04-29T05:29:44;94732.91;;;11.27;56.42
11099;BME280;12223;42.650;23.364;2023-04-29T05:32:10;94757.25;;;11.47;57.70
11099;BME280;12223;42.650;23.364;2023-04-29T05:34:37;94752.84;;;11.41;58.15
11099;BME280;12223;42.650;23.364;2023-04-29T05:37:04;94755.72;;;11.69;56.15
11099;BME280;12223;42.650;23.364;2023-04-29T05:39:31;94746.50;;;12.14;55.08
11099;BME280;12223;42.650;23.364;2023-04-29T05:41:59;94756.50;;;12.58;53.21
11099;BME280;12223;42.650;23.364;2023-04-29T05:44:26;94753.22;;;12.91;52.82
11099;BME280;12223;42.650;23.364;2023-04-29T05:46:53;94750.41;;;13.09;51.84
11099;BME280;12223;42.650;23.364;2023-04-29T05:49:20;94744.94;;;12.87;51.43
11099;BME280;12223;42.650;23.364;2023-04-29T05:51:46;94744.84;;;12.82;51.87
11099;BME280;12223;42.650;23.364;2023-04-29T05:54:13;94745.66;;;12.48;51.48
11099;BME280;12223;42.650;23.364;2023-04-29T05:56:40;94752.47;;;12.32;52.57
11099;BME280;12223;42.650;23.364;2023-04-29T05:59:08;94752.13;;;12.64;52.44
11099;BME280;12223;42.650;23.364;2023-04-29T06:01:35;94764.28;;;12.88;52.44
11099;BME280;12223;42.650;23.364;2023-04-29T06:04:01;94762.97;;;13.25;51.74
11099;BME280;12223;42.650;23.364;2023-04-29T06:06:28;94758.06;;;13.46;50.23
11099;BME280;12223;42.650;23.364;2023-04-29T06:08:55;94765.94;;;13.29;49.74
11099;BME280;12223;42.650;23.364;2023-04-29T06:11:22;94770.25;;;13.47;50.17
11099;BME280;12223;42.650;23.364;2023-04-29T06:13:49;94758.75;;;13.69;49.19
11099;BME280;12223;42.650;23.364;2023-04-29T06:16:17;94762.56;;;13.62;49.37
11099;BME280;12223;42.650;23.364;2023-04-29T06:18:44;94751.38;;;13.60;49.09
11099;BME280;12223;42.650;23.364;2023-04-29T06:21:10;94750.56;;;13.88;49.18
11099;BME280;12223;42.650;23.364;2023-04-29T06:23:37;94754.75;;;14.17;47.91
11099;BME280;12223;42.650;23.364;2023-04-29T06:26:05;94760.06;;;14.34;47.05
11099;BME280;12223;42.650;23.364;2023-04-29T06:28:31;94754.06;;;14.38;47.43
11099;BME280;12223;42.650;23.364;2023-04-29T06:30:58;94754.88;;;14.77;46.97
11099;BME280;12223;42.650;23.364;2023-04-29T06:33:26;94756.84;;;14.32;46.88
11099;BME280;12223;42.650;23.364;2023-04-29T06:35:54;94760.28;;;13.82;48.21
11099;BME280;12223;42.650;23.364;2023-04-29T06:38:21;94763.59;;;13.44;48.90
11099;BME280;12223;42.650;23.364;2023-04-29T06:40:48;94762.53;;;13.17;49.62
11099;BME280;12223;42.650;23.364;2023-04-29T06:43:15;94755.00;;;13.54;49.13
11099;BME280;12223;42.650;23.364;2023-04-29T06:45:44;94760.06;;;14.17;47.52
11099;BME280;12223;42.650;23.364;2023-04-29T06:48:12;94754.84;;;14.22;46.26
11099;BME280;12223;42.650;23.364;2023-04-29T06:50:48;94758.91;;;13.80;46.71
11099;BME280;12223;42.650;23.364;2023-04-29T06:53:14;94748.72;;;13.88;46.27
11099;BME280;12223;42.650;23.364;2023-04-29T06:55:41;94761.34;;;13.98;46.32
11099;BME280;12223;42.650;23.364;2023-04-29T06:58:09;94757.41;;;14.34;45.54
11099;BME280;12223;42.650;23.364;2023-04-29T07:00:36;94754.00;;;14.72;44.61
11099;BME280;12223;42.650;23.364;2023-04-29T07:03:06;94758.81;;;14.75;44.90
11099;BME280;12223;42.650;23.364;2023-04-29T07:05:35;94734.25;;;14.46;44.60
11099;BME280;12223;42.650;23.364;2023-04-29T07:08:05;94756.44;;;14.23;45.37
11099;BME280;12223;42.650;23.364;2023-04-29T07:10:32;94744.47;;;14.21;45.80
11099;BME280;12223;42.650;23.364;2023-04-29T07:12:59;94749.44;;;14.17;46.93
11099;BME280;12223;42.650;23.364;2023-04-29T07:15:27;94741.66;;;14.27;46.33
11099;BME280;12223;42.650;23.364;2023-04-29T07:17:54;94727.56;;;14.27;46.19
11099;BME280;12223;42.650;23.364;2023-04-29T07:20:21;94727.97;;;14.19;46.59
11099;BME280;12223;42.650;23.364;2023-04-29T07:22:48;94727.97;;;14.02;46.22
11099;BME280;12223;42.650;23.364;2023-04-29T07:25:16;94736.69;;;13.69;47.25
11099;BME280;12223;42.650;23.364;2023-04-29T07:27:43;94743.72;;;13.92;47.42
11099;BME280;12223;42.650;23.364;2023-04-29T07:30:10;94745.75;;;14.18;47.33
11099;BME280;12223;42.650;23.364;2023-04-29T07:32:37;94736.16;;;14.17;47.26
11099;BME280;12223;42.650;23.364;2023-04-29T07:35:04;94741.66;;;14.27;47.94
11099;BME280;12223;42.650;23.364;2023-04-29T07:37:31;94739.31;;;14.47;47.19
11099;BME280;12223;42.650;23.364;2023-04-29T07:39:58;94743.84;;;14.47;47.64
11099;BME280;12223;42.650;23.364;2023-04-29T07:42:26;94740.34;;;14.30;46.38
11099;BME280;12223;42.650;23.364;2023-04-29T07:44:53;94735.59;;;14.48;46.02
11099;BME280;12223;42.650;23.364;2023-04-29T07:47:20;94744.25;;;14.77;44.75
11099;BME280;12223;42.650;23.364;2023-04-29T07:49:47;94737.38;;;15.25;44.28
11099;BME280;12223;42.650;23.364;2023-04-29T07:52:13;94735.00;;;15.50;43.55
11099;BME280;12223;42.650;23.364;2023-04-29T07:54:40;94729.38;;;15.47;43.54
11099;BME280;12223;42.650;23.364;2023-04-29T07:57:07;94694.47;;;15.43;42.95
11099;BME280;12223;42.650;23.364;2023-04-29T07:59:35;94727.91;;;15.83;42.62
11099;BME280;12223;42.650;23.364;2023-04-29T08:02:02;94716.88;;;16.01;41.44
11099;BME280;12223;42.650;23.364;2023-04-29T08:04:29;94709.19;;;16.41;40.59
11099;BME280;12223;42.650;23.364;2023-04-29T08:06:56;94721.00;;;16.56;39.00
11099;BME280;12223;42.650;23.364;2023-04-29T08:09:23;94720.13;;;16.08;39.02
11099;BME280;12223;42.650;23.364;2023-04-29T08:11:50;94716.19;;;15.57;39.83
11099;BME280;12223;42.650;23.364;2023-04-29T08:14:17;94719.47;;;15.64;39.23
11099;BME280;12223;42.650;23.364;2023-04-29T08:16:45;94710.84;;;15.79;39.59
11099;BME280;12223;42.650;23.364;2023-04-29T08:19:12;94718.25;;;16.08;39.73
11099;BME280;12223;42.650;23.364;2023-04-29T08:21:39;94712.13;;;16.08;40.62
11099;BME280;12223;42.650;23.364;2023-04-29T08:24:05;94696.53;;;15.90;40.70
11099;BME280;12223;42.650;23.364;2023-04-29T08:26:32;94698.00;;;16.07;39.90
11099;BME280;12223;42.650;23.364;2023-04-29T08:28:59;94701.19;;;16.41;39.24
11099;BME280;12223;42.650;23.364;2023-04-29T08:31:26;94700.00;;;16.22;38.68
11099;BME280;12223;42.650;23.364;2023-04-29T08:33:54;94699.84;;;16.02;39.00
11099;BME280;12223;42.650;23.364;2023-04-29T08:36:23;94701.03;;;16.21;39.68
11099;BME280;12223;42.650;23.364;2023-04-29T08:38:49;94697.53;;;16.58;39.28
11099;BME280;12223;42.650;23.364;2023-04-29T08:41:17;94697.47;;;16.89;38.10
11099;BME280;12223;42.650;23.364;2023-04-29T08:43:43;94710.75;;;17.42;37.25
11099;BME280;12223;42.650;23.364;2023-04-29T08:46:10;94699.50;;;17.29;36.74
11099;BME280;12223;42.650;23.364;2023-04-29T08:48:38;94691.81;;;17.58;35.53
11099;BME280;12223;42.650;23.364;2023-04-29T08:51:07;94693.19;;;17.71;34.74
11099;BME280;12223;42.650;23.364;2023-04-29T08:53:34;94676.66;;;17.84;33.82
11099;BME280;12223;42.650;23.364;2023-04-29T08:56:07;94686.28;;;17.90;34.52
11099;BME280;12223;42.650;23.364;2023-04-29T08:58:35;94681.38;;;17.37;35.20
11099;BME280;12223;42.650;23.364;2023-04-29T09:01:06;94685.81;;;17.01;36.21
11099;BME280;12223;42.650;23.364;2023-04-29T09:03:39;94676.94;;;16.95;35.94
11099;BME280;12223;42.650;23.364;2023-04-29T09:06:10;94669.59;;;17.27;35.72
11099;BME280;12223;42.650;23.364;2023-04-29T09:08:38;94670.72;;;17.52;33.38
11099;BME280;12223;42.650;23.364;2023-04-29T09:11:07;94671.75;;;17.31;33.44
11099;BME280;12223;42.650;23.364;2023-04-29T09:13:34;94670.72;;;17.47;32.66
11099;BME280;12223;42.650;23.364;2023-04-29T09:16:01;94672.78;;;17.19;33.51
11099;BME280;12223;42.650;23.364;2023-04-29T09:18:41;94673.84;;;17.13;33.06
11099;BME280;12223;42.650;23.364;2023-04-29T09:21:17;94668.22;;;17.10;34.00
11099;BME280;12223;42.650;23.364;2023-04-29T09:23:45;94660.47;;;17.08;33.01
11099;BME280;12223;42.650;23.364;2023-04-29T09:26:12;94666.47;;;17.51;33.21
11099;BME280;12223;42.650;23.364;2023-04-29T09:28:39;94663.72;;;17.25;33.89
11099;BME280;12223;42.650;23.364;2023-04-29T09:31:09;94655.78;;;17.56;33.57
11099;BME280;12223;42.650;23.364;2023-04-29T09:33:50;94663.81;;;18.17;32.70
11099;BME280;12223;42.650;23.364;2023-04-29T09:36:38;94641.84;;;18.60;31.58
11099;BME280;12223;42.650;23.364;2023-04-29T09:39:06;94644.78;;;18.54;31.11
11099;BME280;12223;42.650;23.364;2023-04-29T09:41:38;94649.88;;;18.50;29.96
11099;BME280;12223;42.650;23.364;2023-04-29T09:44:05;94638.66;;;18.58;30.19
11099;BME280;12223;42.650;23.364;2023-04-29T09:46:33;94637.47;;;18.90;29.75
11099;BME280;12223;42.650;23.364;2023-04-29T09:49:01;94637.34;;;19.20;30.01
11099;BME280;12223;42.650;23.364;2023-04-29T09:51:29;94635.88;;;19.38;30.04
11099;BME280;12223;42.650;23.364;2023-04-29T09:53:59;94623.56;;;19.81;29.14
11099;BME280;12223;42.650;23.364;2023-04-29T09:56:27;94629.34;;;19.98;29.42
11099;BME280;12223;42.650;23.364;2023-04-29T09:58:55;94614.09;;;19.59;29.93
11099;BME280;12223;42.650;23.364;2023-04-29T10:01:25;94620.56;;;19.53;30.01
11099;BME280;12223;42.650;23.364;2023-04-29T10:03:54;94616.19;;;19.62;30.17
11099;BME280;12223;42.650;23.364;2023-04-29T10:06:22;94621.56;;;19.13;30.86
11099;BME280;12223;42.650;23.364;2023-04-29T10:08:50;94596.09;;;18.67;31.72
11099;BME280;12223;42.650;23.364;2023-04-29T10:11:19;94609.16;;;18.83;31.87
11099;BME280;12223;42.650;23.364;2023-04-29T10:13:48;94597.63;;;18.83;31.38
11099;BME280;12223;42.650;23.364;2023-04-29T10:16:24;94593.13;;;18.73;31.36
11099;BME280;12223;42.650;23.364;2023-04-29T10:18:54;94592.09;;;18.54;31.50
11099;BME280;12223;42.650;23.364;2023-04-29T10:21:26;94595.88;;;18.43;32.16
11099;BME280;12223;42.650;23.364;2023-04-29T10:23:56;94590.94;;;17.76;29.60
11099;BME280;12223;42.650;23.364;2023-04-29T10:26:26;94589.50;;;18.24;29.19
11099;BME280;12223;42.650;23.364;2023-04-29T10:28:54;94592.00;;;18.84;28.85
11099;BME280;12223;42.650;23.364;2023-04-29T10:31:24;94586.03;;;18.98;29.12
11099;BME280;12223;42.650;23.364;2023-04-29T10:33:54;94583.47;;;18.82;29.23
11099;BME280;12223;42.650;23.364;2023-04-29T10:36:21;94580.38;;;19.04;29.08
11099;BME280;12223;42.650;23.364;2023-04-29T10:38:51;94577.06;;;19.22;29.38
11099;BME280;12223;42.650;23.364;2023-04-29T10:41:21;94578.53;;;19.00;28.65
11099;BME280;12223;42.650;23.364;2023-04-29T10:43:51;94572.13;;;19.01;28.99
11099;BME280;12223;42.650;23.364;2023-04-29T10:46:20;94584.59;;;19.20;27.34
11099;BME280;12223;42.650;23.364;2023-04-29T10:48:48;94553.00;;;18.73;26.86
11099;BME280;12223;42.650;23.364;2023-04-29T10:51:30;94583.84;;;19.54;27.00
11099;BME280;12223;42.650;23.364;2023-04-29T10:53:58;94582.56;;;19.46;27.71
11099;BME280;12223;42.650;23.364;2023-04-29T10:56:40;94557.19;;;19.34;28.21
11099;BME280;12223;42.650;23.364;2023-04-29T10:59:13;94576.97;;;19.38;28.14
11099;BME280;12223;42.650;23.364;2023-04-29T11:01:48;94584.56;;;18.76;28.19
11099;BME280;12223;42.650;23.364;2023-04-29T11:04:16;94576.22;;;18.83;28.65
11099;BME280;12223;42.650;23.364;2023-04-29T11:06:45;94577.44;;;19.06;28.01
11099;BME280;12223;42.650;23.364;2023-04-29T11:09:14;94571.81;;;18.58;27.25
11099;BME280;12223;42.650;23.364;2023-04-29T11:11:46;94579.78;;;18.68;26.67
11099;BME280;12223;42.650;23.364;2023-04-29T11:14:22;94577.91;;;18.69;28.13
11099;BME280;12223;42.650;23.364;2023-04-29T11:16:51;94571.25;;;18.51;27.91
11099;BME280;12223;42.650;23.364;2023-04-29T11:19:18;94568.75;;;18.80;28.06
11099;BME280;12223;42.650;23.364;2023-04-29T11:21:46;94562.53;;;18.95;27.59
11099;BME280;12223;42.650;23.364;2023-04-29T11:24:13;94560.91;;;18.94;27.67
11099;BME280;12223;42.650;23.364;2023-04-29T11:26:41;94563.28;;;19.00;27.69
11099;BME280;12223;42.650;23.364;2023-04-29T11:29:10;94564.09;;;19.01;26.29
11099;BME280;12223;42.650;23.364;2023-04-29T11:31:38;94561.88;;;19.13;26.62
11099;BME280;12223;42.650;23.364;2023-04-29T11:34:05;94566.63;;;19.26;26.94
11099;BME280;12223;42.650;23.364;2023-04-29T11:36:33;94560.88;;;19.43;26.78
11099;BME280;12223;42.650;23.364;2023-04-29T11:39:01;94567.31;;;19.47;27.11
11099;BME280;12223;42.650;23.364;2023-04-29T11:41:29;94566.47;;;19.51;27.74
11099;BME280;12223;42.650;23.364;2023-04-29T11:43:58;94556.38;;;18.94;28.41
11099;BME280;12223;42.650;23.364;2023-04-29T11:46:25;94559.53;;;19.01;28.78
11099;BME280;12223;42.650;23.364;2023-04-29T11:48:57;94558.81;;;19.35;28.41
11099;BME280;12223;42.650;23.364;2023-04-29T11:51:25;94563.59;;;19.38;28.18
11099;BME280;12223;42.650;23.364;2023-04-29T11:53:52;94560.69;;;19.29;27.56
11099;BME280;12223;42.650;23.364;2023-04-29T11:56:21;94561.13;;;19.41;27.95
11099;BME280;12223;42.650;23.364;2023-04-29T11:58:52;94557.59;;;19.12;27.64
11099;BME280;12223;42.650;23.364;2023-04-29T12:01:19;94563.75;;;19.12;28.39
11099;BME280;12223;42.650;23.364;2023-04-29T12:03:47;94543.06;;;19.23;28.83
11099;BME280;12223;42.650;23.364;2023-04-29T12:06:16;94551.53;;;19.35;28.82
11099;BME280;12223;42.650;23.364;2023-04-29T12:08:45;94559.88;;;19.28;29.30
11099;BME280;12223;42.650;23.364;2023-04-29T12:11:13;94554.50;;;18.95;30.40
11099;BME280;12223;42.650;23.364;2023-04-29T12:13:39;94548.47;;;18.69;30.79
11099;BME280;12223;42.650;23.364;2023-04-29T12:16:07;94549.88;;;18.41;31.45
11099;BME280;12223;42.650;23.364;2023-04-29T12:18:34;94552.28;;;18.47;32.31
11099;BME280;12223;42.650;23.364;2023-04-29T12:21:01;94554.41;;;18.51;32.39
11099;BME280;12223;42.650;23.364;2023-04-29T12:23:29;94546.59;;;18.69;32.83
11099;BME280;12223;42.650;23.364;2023-04-29T12:25:57;94542.22;;;18.88;32.66
11099;BME280;12223;42.650;23.364;2023-04-29T12:28:25;94537.72;;;18.84;32.69
11099;BME280;12223;42.650;23.364;2023-04-29T12:30:53;94535.69;;;19.05;32.78
11099;BME280;12223;42.650;23.364;2023-04-29T12:33:20;94543.38;;;19.16;31.93
11099;BME280;12223;42.650;23.364;2023-04-29T12:35:48;94538.59;;;19.13;31.55
11099;BME280;12223;42.650;23.364;2023-04-29T12:38:19;94533.94;;;19.24;31.68
11099;BME280;12223;42.650;23.364;2023-04-29T12:40:48;94535.56;;;19.25;31.81
11099;BME280;12223;42.650;23.364;2023-04-29T12:43:15;94485.94;;;18.99;31.62
11099;BME280;12223;42.650;23.364;2023-04-29T12:45:43;94532.03;;;19.35;31.03
11099;BME280;12223;42.650;23.364;2023-04-29T12:48:10;94532.44;;;19.52;30.79
11099;BME280;12223;42.650;23.364;2023-04-29T12:50:38;94533.09;;;19.67;30.92
11099;BME280;12223;42.650;23.364;2023-04-29T12:53:06;94530.56;;;19.81;31.41
11099;BME280;12223;42.650;23.364;2023-04-29T12:55:34;94532.47;;;20.04;31.78
11099;BME280;12223;42.650;23.364;2023-04-29T12:58:03;94509.31;;;19.90;30.85